AirNav   ProFlight Series 2 Aviation Headset
 
 731 users online  

75MO Childrens Mercy Hospital Heliport
Kansas City, Missouri, USA

GOING TO KANSAS CITY?


FAA INFORMATION EFFECTIVE 18 JUNE 2020

Location

FAA Identifier: 75MO
Lat/Long: 39-05-01.7400N 094-34-36.9100W
39-05.029000N 094-34.615167W
39.0838167,-94.5769194
(estimated)
Elevation: 922 ft. / 281 m (estimated)
Variation: 04E (1995)
Time zone: UTC -5 (UTC -6 during Standard Time)
Zip code: 64108

Heliport Operations

Heliport use: Private use, MEDICAL USE.
Activation date: 05/1995
Control tower: no
ARTCC: KANSAS CITY CENTER
FSS: COLUMBIA FLIGHT SERVICE STATION
Attendance: CONTINUOUS
Wind indicator: yes
Segmented circle: no

Heliport Communications

WX ASOS at MKC (2.5 nm N): PHONE 816-329-2843
WX ASOS at LXT (12 nm SE): 124.175 (816-347-9807)
WX ASOS at MCI (14 nm NW): PHONE 816-329-2808
WX ASOS at OJC (16 nm SW): 119.35 (913-780-6969)
WX AWOS-3 at GPH (19 nm NE): 120.275 (816-407-3399)

Nearby radio navigation aids

VOR radial/distance  VOR name  Freq  Var
MCIr143/14.2KANSAS CITY VORTAC113.2505E
ANXr261/20.9NAPOLEON VORTAC114.0007E

Heliport Services

Runway Information

Helipad H1

Dimensions: 72 x 35 ft. / 22 x 11 m
Surface: concrete
Latitude: 39-05.029000N
Longitude: 094-34.615167W
Elevation: 922.0 ft.
Traffic pattern: leftleft

Helipad H2

Dimensions: 55 x 55 ft. / 17 x 17 m
Surface: asphalt
Latitude: 39-05.012667N
Longitude: 094-34.616167W
Elevation: 922.0 ft.
Traffic pattern: leftleft

Heliport Ownership and Management from official FAA records

Ownership: Privately-owned
Owner: CHILDRENS MERCY HOSPITAL
2401 GILLHAM ROAD
KANSAS CITY, MO 64108
Phone 816-234-3000
Manager: SHERRY MCCOOL
2401 GILLHAM ROAD
KANSAS CITY, MO 64108
Phone 816-536-3115
CHRISTY DRESSLER 816-234-3166

Heliport Operational Statistics

Aircraft based on the field: 1
Helicopters: 1
    

Additional Remarks

A52-H1 73 FT BLDG 80 FT S; 62 FT BLDG 300 FT NE; 95 FT BLDG 200 FT W & 200 FT CRANE 100 FT N.
FOR CD CTC KANSAS CITY APCH AT 816-329-2710.

Instrument Procedures

There are no published instrument procedures at 75MO.

Some nearby airports with instrument procedures:

KMKC - Charles B Wheeler Downtown Airport (2 nm N)
KLXT - Lee's Summit Municipal Airport (12 nm SE)
KMCI - Kansas City International Airport (14 nm NW)
KOJC - Johnson County Executive Airport (16 nm SW)
3GV - East Kansas City Airport (17 nm E)
KGPH - Midwest National Air Center Airport (19 nm NE)
 
Loc | Ops | Rwys | IFR | FBO | Links
Com | Nav | Svcs | Stats | Notes
Area around 75MO (Childrens Mercy Hospital Heliport)
 
Road maps at: MapQuest Bing Google
 
Aerial photo
No photo
 
Sectional chart

 
Airport distance calculator
Flying to Childrens Mercy Hospital Heliport? Find the distance to fly.

From to 75MO

Sunrise and sunset
Times for 04-Jul-2020
 Local
(UTC-5)
 Zulu
(UTC)
Morning civil twilight05:2710:27
Sunrise05:5910:59
Sunset20:4701:47
Evening civil twilight21:1802:18

Current date and time
Zulu (UTC)  05-Jul-2020 02:19:46
Local (UTC-5)  04-Jul-2020 21:19:46
 
METAR
KMKC 
2nm NW 
050154Z 08003KT 10SM OVC060 28/23 A2994 RMK AO2 SLP131 T02780228
KLXT 
12nm SE 
050153Z AUTO 09003KT 10SM CLR 27/21 A2997 RMK AO2 SLP138 T02670211 $
KMCI 
15nm NW 
050153Z 11007KT 10SM SCT065 27/22 A2996 RMK AO2 SLP134 T02720222
KOJC 
16nm SW 
050153Z 13008KT 10SM SCT029 BKN080 26/23 A2996 RMK AO2 SLP134 T02610228 $
KGPH 
19nm NE 
050155Z AUTO 00000KT 10SM CLR 27/21 A2995 RMK AO2
TAF
KMKC 
2nm NW 
042120Z 0421/0518 07009KT P6SM VCSH SCT018 BKN040 TEMPO 0421/0423 -TSRA BKN025CB FM042300 08008KT P6SM VCSH SCT030 BKN050 FM050300 09004KT P6SM SCT035
KMCI 
15nm NW 
042156Z 0422/0518 08011KT P6SM VCTS BKN035CB FM050000 09005KT P6SM SCT035
NOTAMs
Click for the latest NOTAMs
NOTAMs are issued by the DoD/FAA and will open in a separate window not controlled by AirNav.

 

 
 

Would you like to see your business listed on this page?

 If your business provides an interesting product or service to pilots, flight crews, aircraft, or users of the Childrens Mercy Hospital Heliport, you should consider listing it here.  To start the listing process, click on the button below
 
Add a business
 

Other Pages about Childrens Mercy Hospital Heliport

Update a link
 
Copyright © AirNav, LLC. All rights reserved. Privacy Policy  Contact